Gold Canyon, Arizona
Current Conditions -  °F | °C
As of 5:50 PM on Friday 19 Dec 2014 (Local Time) from KIWA Reporting Station
Few Clouds Few Clouds  
Wind Chill: 57°   Ceiling: Unl
Heat Index: 57°   Visibility: 20mi
Dew Point: 39°   Wind: 0mph
Humidity: 51%   Direction: NA
Pressure: 30.14"   Gusts: NA
Location:  33.2782°N, 111.363°W
Report Text: KIWA 200050Z 00000KT 20SM FEW250 14/04 A3014
Loading
Personal Weather Stations






























Interactive Weather Map New forecast layout! Learn more

10-Day Weather Forecast

Advertisements
Track Severe Weather on mobile